Аэропорт: Хомутово. Южно-Сахалинск

ICAO: UHSS

METAR:
2020-10-19 23:00:00
UHSS 192300Z 31002MPS 9999 NSC 02/01 Q1023 R01/250060 NOSIG RMK QFE766/1022
METAR:
2020-10-19 20:00:00
TAF UHSS 192000Z 1921/2103 33003MPS 9999 BKN030CB TEMPO 1921/1924 3100 BR BKN006 BKN020CB